sensor_id;sensor_type;location;lat;lon;timestamp;temperature;humidity
47576;DHT22;33304;52.456;13.328;2022-07-15T00:02:17;15.40;20.00
47576;DHT22;33304;52.456;13.328;2022-07-15T00:04:44;15.40;20.10
47576;DHT22;33304;52.456;13.328;2022-07-15T00:07:12;15.40;20.30
47576;DHT22;33304;52.456;13.328;2022-07-15T00:09:39;15.40;20.30
47576;DHT22;33304;52.456;13.328;2022-07-15T00:12:25;15.40;20.20
47576;DHT22;33304;52.456;13.328;2022-07-15T00:14:52;15.20;20.90
47576;DHT22;33304;52.456;13.328;2022-07-15T00:17:19;15.00;21.30
47576;DHT22;33304;52.456;13.328;2022-07-15T00:19:47;15.00;21.60
47576;DHT22;33304;52.456;13.328;2022-07-15T00:22:14;14.80;22.20
47576;DHT22;33304;52.456;13.328;2022-07-15T00:24:41;14.80;22.50
47576;DHT22;33304;52.456;13.328;2022-07-15T00:27:08;14.80;22.40
47576;DHT22;33304;52.456;13.328;2022-07-15T00:29:37;14.70;22.50
47576;DHT22;33304;52.456;13.328;2022-07-15T00:32:04;14.80;22.60
47576;DHT22;33304;52.456;13.328;2022-07-15T00:34:32;14.90;22.60
47576;DHT22;33304;52.456;13.328;2022-07-15T00:36:59;14.90;22.60
47576;DHT22;33304;52.456;13.328;2022-07-15T00:39:27;14.90;22.70
47576;DHT22;33304;52.456;13.328;2022-07-15T00:41:54;14.70;22.90
47576;DHT22;33304;52.456;13.328;2022-07-15T00:44:21;14.60;23.40
47576;DHT22;33304;52.456;13.328;2022-07-15T00:46:51;14.50;23.90
47576;DHT22;33304;52.456;13.328;2022-07-15T00:49:18;14.70;24.00
47576;DHT22;33304;52.456;13.328;2022-07-15T00:51:47;14.60;23.80
47576;DHT22;33304;52.456;13.328;2022-07-15T00:54:22;14.60;23.80
47576;DHT22;33304;52.456;13.328;2022-07-15T00:56:51;14.50;24.10
47576;DHT22;33304;52.456;13.328;2022-07-15T00:59:20;14.50;24.60
47576;DHT22;33304;52.456;13.328;2022-07-15T01:01:51;14.40;25.10
47576;DHT22;33304;52.456;13.328;2022-07-15T04:41:25;13.40;33.00
47576;DHT22;33304;52.456;13.328;2022-07-15T04:43:53;13.70;32.50
47576;DHT22;33304;52.456;13.328;2022-07-15T04:46:20;13.60;31.80
47576;DHT22;33304;52.456;13.328;2022-07-15T04:48:52;13.60;32.00
47576;DHT22;33304;52.456;13.328;2022-07-15T04:51:37;13.60;32.10
47576;DHT22;33304;52.456;13.328;2022-07-15T04:54:07;13.70;32.10
47576;DHT22;33304;52.456;13.328;2022-07-15T04:56:36;13.90;31.40
47576;DHT22;33304;52.456;13.328;2022-07-15T04:59:05;14.00;30.60
47576;DHT22;33304;52.456;13.328;2022-07-15T05:01:33;14.00;30.00
47576;DHT22;33304;52.456;13.328;2022-07-15T05:04:00;14.10;29.80
47576;DHT22;33304;52.456;13.328;2022-07-15T05:06:27;14.10;29.60
47576;DHT22;33304;52.456;13.328;2022-07-15T05:08:55;14.10;29.60
47576;DHT22;33304;52.456;13.328;2022-07-15T05:11:22;14.30;29.30
47576;DHT22;33304;52.456;13.328;2022-07-15T05:13:50;14.40;29.10
47576;DHT22;33304;52.456;13.328;2022-07-15T05:16:19;14.20;29.20
47576;DHT22;33304;52.456;13.328;2022-07-15T05:18:46;14.10;29.20
47576;DHT22;33304;52.456;13.328;2022-07-15T05:21:16;14.10;29.20
47576;DHT22;33304;52.456;13.328;2022-07-15T05:23:43;14.20;29.70
47576;DHT22;33304;52.456;13.328;2022-07-15T05:26:10;14.50;28.80
47576;DHT22;33304;52.456;13.328;2022-07-15T05:28:40;14.50;28.50
47576;DHT22;33304;52.456;13.328;2022-07-15T05:31:08;14.50;28.30
47576;DHT22;33304;52.456;13.328;2022-07-15T05:33:36;14.50;28.30
47576;DHT22;33304;52.456;13.328;2022-07-15T05:36:11;14.50;28.50
47576;DHT22;33304;52.456;13.328;2022-07-15T05:38:41;14.50;28.50
47576;DHT22;33304;52.456;13.328;2022-07-15T05:41:08;14.80;27.80
47576;DHT22;33304;52.456;13.328;2022-07-15T05:43:36;14.80;27.00
47576;DHT22;33304;52.456;13.328;2022-07-15T05:46:04;14.90;26.80
47576;DHT22;33304;52.456;13.328;2022-07-15T05:48:42;14.70;26.80
47576;DHT22;33304;52.456;13.328;2022-07-15T05:51:09;14.90;26.80
47576;DHT22;33304;52.456;13.328;2022-07-15T05:53:37;14.90;26.70
47576;DHT22;33304;52.456;13.328;2022-07-15T05:56:07;14.90;26.70
47576;DHT22;33304;52.456;13.328;2022-07-15T05:58:34;15.10;25.60
47576;DHT22;33304;52.456;13.328;2022-07-15T06:01:02;15.10;25.60
47576;DHT22;33304;52.456;13.328;2022-07-15T06:03:36;15.10;25.60
47576;DHT22;33304;52.456;13.328;2022-07-15T06:06:05;15.30;25.00
47576;DHT22;33304;52.456;13.328;2022-07-15T06:08:35;15.40;24.80
47576;DHT22;33304;52.456;13.328;2022-07-15T06:11:02;15.40;24.30
47576;DHT22;33304;52.456;13.328;2022-07-15T06:13:29;15.40;24.60
47576;DHT22;33304;52.456;13.328;2022-07-15T06:15:56;15.60;23.60
47576;DHT22;33304;52.456;13.328;2022-07-15T06:18:24;15.80;22.70
47576;DHT22;33304;52.456;13.328;2022-07-15T06:20:52;15.80;21.90
47576;DHT22;33304;52.456;13.328;2022-07-15T06:23:20;16.00;21.40
47576;DHT22;33304;52.456;13.328;2022-07-15T06:25:49;16.20;21.10
47576;DHT22;33304;52.456;13.328;2022-07-15T06:28:16;16.50;20.70
47576;DHT22;33304;52.456;13.328;2022-07-15T06:30:44;16.10;20.70
47576;DHT22;33304;52.456;13.328;2022-07-15T06:33:11;16.00;20.80
47576;DHT22;33304;52.456;13.328;2022-07-15T06:35:38;16.30;21.00
47576;DHT22;33304;52.456;13.328;2022-07-15T06:38:07;16.20;20.60
47576;DHT22;33304;52.456;13.328;2022-07-15T06:40:36;16.30;20.40
47576;DHT22;33304;52.456;13.328;2022-07-15T06:43:04;16.10;20.70
47576;DHT22;33304;52.456;13.328;2022-07-15T06:45:53;16.30;20.50
47576;DHT22;33304;52.456;13.328;2022-07-15T06:48:21;16.30;19.90
47576;DHT22;33304;52.456;13.328;2022-07-15T06:50:48;16.50;20.30
47576;DHT22;33304;52.456;13.328;2022-07-15T06:53:15;16.40;19.50
47576;DHT22;33304;52.456;13.328;2022-07-15T06:55:43;16.60;19.70
47576;DHT22;33304;52.456;13.328;2022-07-15T06:58:12;16.50;20.40
47576;DHT22;33304;52.456;13.328;2022-07-15T07:00:39;16.70;18.90
47576;DHT22;33304;52.456;13.328;2022-07-15T07:03:06;16.80;19.50
47576;DHT22;33304;52.456;13.328;2022-07-15T07:05:34;17.00;19.50
47576;DHT22;33304;52.456;13.328;2022-07-15T07:08:03;17.00;19.10
47576;DHT22;33304;52.456;13.328;2022-07-15T07:10:30;17.20;18.60
47576;DHT22;33304;52.456;13.328;2022-07-15T07:12:58;17.20;18.40
47576;DHT22;33304;52.456;13.328;2022-07-15T07:15:26;17.10;18.70
47576;DHT22;33304;52.456;13.328;2022-07-15T07:17:53;17.10;18.50
47576;DHT22;33304;52.456;13.328;2022-07-15T07:20:20;17.00;18.60
47576;DHT22;33304;52.456;13.328;2022-07-15T07:22:47;17.00;19.50
47576;DHT22;33304;52.456;13.328;2022-07-15T07:25:15;17.10;17.30
47576;DHT22;33304;52.456;13.328;2022-07-15T07:27:42;17.10;17.60
47576;DHT22;33304;52.456;13.328;2022-07-15T07:30:11;17.00;17.30
47576;DHT22;33304;52.456;13.328;2022-07-15T07:32:38;16.90;17.20
47576;DHT22;33304;52.456;13.328;2022-07-15T07:35:06;17.10;17.30
47576;DHT22;33304;52.456;13.328;2022-07-15T07:37:34;16.80;17.90
47576;DHT22;33304;52.456;13.328;2022-07-15T07:40:03;16.70;17.70
47576;DHT22;33304;52.456;13.328;2022-07-15T07:42:30;16.80;17.10
47576;DHT22;33304;52.456;13.328;2022-07-15T07:44:57;17.10;17.30
47576;DHT22;33304;52.456;13.328;2022-07-15T07:47:28;16.80;17.10
47576;DHT22;33304;52.456;13.328;2022-07-15T07:49:55;17.20;17.40
47576;DHT22;33304;52.456;13.328;2022-07-15T07:52:22;17.50;16.60
47576;DHT22;33304;52.456;13.328;2022-07-15T07:54:49;17.40;13.80
47576;DHT22;33304;52.456;13.328;2022-07-15T07:57:16;17.20;15.30
47576;DHT22;33304;52.456;13.328;2022-07-15T07:59:44;17.50;15.50
47576;DHT22;33304;52.456;13.328;2022-07-15T08:02:11;17.40;13.70
47576;DHT22;33304;52.456;13.328;2022-07-15T08:04:39;17.60;13.90
47576;DHT22;33304;52.456;13.328;2022-07-15T08:07:07;17.70;13.80
47576;DHT22;33304;52.456;13.328;2022-07-15T08:09:34;17.80;12.90
47576;DHT22;33304;52.456;13.328;2022-07-15T08:12:02;17.70;13.10
47576;DHT22;33304;52.456;13.328;2022-07-15T08:14:29;17.90;12.70
47576;DHT22;33304;52.456;13.328;2022-07-15T08:16:56;17.90;12.60
47576;DHT22;33304;52.456;13.328;2022-07-15T08:19:24;17.80;12.00
47576;DHT22;33304;52.456;13.328;2022-07-15T08:21:53;17.80;12.40
47576;DHT22;33304;52.456;13.328;2022-07-15T08:24:21;17.60;11.00
47576;DHT22;33304;52.456;13.328;2022-07-15T08:26:48;17.50;10.70
47576;DHT22;33304;52.456;13.328;2022-07-15T08:29:15;17.60;10.10
47576;DHT22;33304;52.456;13.328;2022-07-15T08:31:43;17.60;10.10
47576;DHT22;33304;52.456;13.328;2022-07-15T08:34:10;17.60;9.60
47576;DHT22;33304;52.456;13.328;2022-07-15T08:36:38;17.70;10.70
47576;DHT22;33304;52.456;13.328;2022-07-15T08:39:06;17.80;10.30
47576;DHT22;33304;52.456;13.328;2022-07-15T08:41:34;17.90;10.00
47576;DHT22;33304;52.456;13.328;2022-07-15T08:44:03;17.60;10.00
47576;DHT22;33304;52.456;13.328;2022-07-15T08:46:32;17.50;10.60
47576;DHT22;33304;52.456;13.328;2022-07-15T08:49:04;17.40;10.80
47576;DHT22;33304;52.456;13.328;2022-07-15T08:51:34;17.60;11.30
47576;DHT22;33304;52.456;13.328;2022-07-15T08:54:06;17.70;11.40
47576;DHT22;33304;52.456;13.328;2022-07-15T08:56:34;17.90;10.50
47576;DHT22;33304;52.456;13.328;2022-07-15T08:59:02;17.90;10.20
47576;DHT22;33304;52.456;13.328;2022-07-15T09:01:31;18.00;11.20
47576;DHT22;33304;52.456;13.328;2022-07-15T09:03:59;18.00;10.40
47576;DHT22;33304;52.456;13.328;2022-07-15T09:06:34;17.90;9.20
47576;DHT22;33304;52.456;13.328;2022-07-15T09:09:26;17.70;9.80
47576;DHT22;33304;52.456;13.328;2022-07-15T09:12:01;18.10;9.90
47576;DHT22;33304;52.456;13.328;2022-07-15T09:14:31;18.40;9.50
47576;DHT22;33304;52.456;13.328;2022-07-15T09:17:29;18.40;9.00
47576;DHT22;33304;52.456;13.328;2022-07-15T09:19:58;18.20;9.80
47576;DHT22;33304;52.456;13.328;2022-07-15T09:22:28;18.10;9.60
47576;DHT22;33304;52.456;13.328;2022-07-15T09:25:06;18.00;10.30
47576;DHT22;33304;52.456;13.328;2022-07-15T09:27:34;18.00;10.30
47576;DHT22;33304;52.456;13.328;2022-07-15T09:30:17;17.90;10.70
47576;DHT22;33304;52.456;13.328;2022-07-15T09:33:04;17.90;11.50
47576;DHT22;33304;52.456;13.328;2022-07-15T09:35:49;17.90;11.00
47576;DHT22;33304;52.456;13.328;2022-07-15T09:38:34;17.80;12.10
47576;DHT22;33304;52.456;13.328;2022-07-15T09:41:02;18.00;11.10
47576;DHT22;33304;52.456;13.328;2022-07-15T09:43:30;18.10;10.40
47576;DHT22;33304;52.456;13.328;2022-07-15T09:45:58;18.10;10.60
47576;DHT22;33304;52.456;13.328;2022-07-15T09:48:27;18.50;9.40
47576;DHT22;33304;52.456;13.328;2022-07-15T09:50:59;18.60;8.30
47576;DHT22;33304;52.456;13.328;2022-07-15T09:53:27;19.10;8.70
47576;DHT22;33304;52.456;13.328;2022-07-15T09:55:54;19.40;8.90
47576;DHT22;33304;52.456;13.328;2022-07-15T09:58:25;19.60;8.20
47576;DHT22;33304;52.456;13.328;2022-07-15T10:00:52;19.40;6.80
47576;DHT22;33304;52.456;13.328;2022-07-15T10:03:19;19.40;6.60
47576;DHT22;33304;52.456;13.328;2022-07-15T10:05:51;18.90;7.50
47576;DHT22;33304;52.456;13.328;2022-07-15T10:08:19;18.70;8.40
47576;DHT22;33304;52.456;13.328;2022-07-15T10:10:46;18.70;8.40
47576;DHT22;33304;52.456;13.328;2022-07-15T10:16:21;18.50;8.30
47576;DHT22;33304;52.456;13.328;2022-07-15T10:19:02;18.50;8.80
47576;DHT22;33304;52.456;13.328;2022-07-15T10:21:38;18.70;8.40
47576;DHT22;33304;52.456;13.328;2022-07-15T10:24:23;18.90;8.50
47576;DHT22;33304;52.456;13.328;2022-07-15T10:27:05;18.90;8.50
47576;DHT22;33304;52.456;13.328;2022-07-15T10:29:34;19.50;7.50
47576;DHT22;33304;52.456;13.328;2022-07-15T10:32:03;19.60;6.70
47576;DHT22;33304;52.456;13.328;2022-07-15T10:34:32;19.90;7.10
47576;DHT22;33304;52.456;13.328;2022-07-15T10:37:05;19.80;5.80
47576;DHT22;33304;52.456;13.328;2022-07-15T10:39:57;19.90;5.90
47576;DHT22;33304;52.456;13.328;2022-07-15T10:42:59;20.10;6.40
47576;DHT22;33304;52.456;13.328;2022-07-15T10:45:27;20.00;6.80
47576;DHT22;33304;52.456;13.328;2022-07-15T10:48:27;20.00;6.50
47576;DHT22;33304;52.456;13.328;2022-07-15T10:50:54;19.80;5.80
47576;DHT22;33304;52.456;13.328;2022-07-15T10:53:23;19.80;6.30
47576;DHT22;33304;52.456;13.328;2022-07-15T10:55:52;20.00;6.50
47576;DHT22;33304;52.456;13.328;2022-07-15T10:58:19;20.40;6.10
47576;DHT22;33304;52.456;13.328;2022-07-15T11:00:47;20.30;3.90
47576;DHT22;33304;52.456;13.328;2022-07-15T11:03:16;20.20;4.90
47576;DHT22;33304;52.456;13.328;2022-07-15T11:06:05;20.60;5.00
47576;DHT22;33304;52.456;13.328;2022-07-15T11:08:49;20.90;3.10
47576;DHT22;33304;52.456;13.328;2022-07-15T11:11:45;21.00;2.80
47576;DHT22;33304;52.456;13.328;2022-07-15T11:14:47;20.70;3.60
47576;DHT22;33304;52.456;13.328;2022-07-15T11:17:17;20.40;2.30
47576;DHT22;33304;52.456;13.328;2022-07-15T11:19:50;20.10;3.00
47576;DHT22;33304;52.456;13.328;2022-07-15T11:22:20;20.00;3.40
47576;DHT22;33304;52.456;13.328;2022-07-15T11:24:48;19.80;3.20
47576;DHT22;33304;52.456;13.328;2022-07-15T11:27:15;19.60;3.90
47576;DHT22;33304;52.456;13.328;2022-07-15T11:29:44;19.60;3.70
47576;DHT22;33304;52.456;13.328;2022-07-15T11:32:12;19.90;3.10
47576;DHT22;33304;52.456;13.328;2022-07-15T11:34:43;20.30;3.00
47576;DHT22;33304;52.456;13.328;2022-07-15T11:37:12;20.40;2.60
47576;DHT22;33304;52.456;13.328;2022-07-15T11:39:47;20.80;2.40
47576;DHT22;33304;52.456;13.328;2022-07-15T11:42:19;20.40;2.30
47576;DHT22;33304;52.456;13.328;2022-07-15T11:45:05;20.30;2.20
47576;DHT22;33304;52.456;13.328;2022-07-15T11:47:33;20.30;2.90
47576;DHT22;33304;52.456;13.328;2022-07-15T11:50:02;20.40;2.20
47576;DHT22;33304;52.456;13.328;2022-07-15T11:52:29;20.00;2.30
47576;DHT22;33304;52.456;13.328;2022-07-15T11:54:58;20.00;2.70
47576;DHT22;33304;52.456;13.328;2022-07-15T11:57:32;20.00;3.00
47576;DHT22;33304;52.456;13.328;2022-07-15T12:00:00;20.00;3.30
47576;DHT22;33304;52.456;13.328;2022-07-15T12:02:28;20.00;2.90
47576;DHT22;33304;52.456;13.328;2022-07-15T12:05:01;20.20;2.70
47576;DHT22;33304;52.456;13.328;2022-07-15T12:07:43;20.50;1.70
47576;DHT22;33304;52.456;13.328;2022-07-15T12:10:12;21.00;1.90
47576;DHT22;33304;52.456;13.328;2022-07-15T12:12:42;21.00;1.70
47576;DHT22;33304;52.456;13.328;2022-07-15T12:15:10;21.10;1.10
47576;DHT22;33304;52.456;13.328;2022-07-15T12:17:39;21.30;1.00
47576;DHT22;33304;52.456;13.328;2022-07-15T12:20:08;21.20;1.00
47576;DHT22;33304;52.456;13.328;2022-07-15T12:22:36;21.20;1.70
47576;DHT22;33304;52.456;13.328;2022-07-15T12:25:04;21.90;1.00
47576;DHT22;33304;52.456;13.328;2022-07-15T12:27:33;23.00;1.00
47576;DHT22;33304;52.456;13.328;2022-07-15T12:30:02;22.80;1.00
47576;DHT22;33304;52.456;13.328;2022-07-15T12:32:29;22.60;1.00
47576;DHT22;33304;52.456;13.328;2022-07-15T12:34:58;22.00;1.00
47576;DHT22;33304;52.456;13.328;2022-07-15T12:37:27;21.50;1.00
47576;DHT22;33304;52.456;13.328;2022-07-15T12:39:57;21.00;1.00
47576;DHT22;33304;52.456;13.328;2022-07-15T12:42:25;20.60;1.00
47576;DHT22;33304;52.456;13.328;2022-07-15T12:45:10;20.40;1.00
47576;DHT22;33304;52.456;13.328;2022-07-15T12:47:56;20.10;1.00
47576;DHT22;33304;52.456;13.328;2022-07-15T12:50:24;20.10;1.00
47576;DHT22;33304;52.456;13.328;2022-07-15T12:52:53;20.20;1.40
47576;DHT22;33304;52.456;13.328;2022-07-15T12:55:22;20.40;1.00
47576;DHT22;33304;52.456;13.328;2022-07-15T12:57:50;20.80;1.40
47576;DHT22;33304;52.456;13.328;2022-07-15T13:00:22;22.00;1.00
47576;DHT22;33304;52.456;13.328;2022-07-15T13:02:58;23.60;1.00
47576;DHT22;33304;52.456;13.328;2022-07-15T13:05:27;24.10;1.00
47576;DHT22;33304;52.456;13.328;2022-07-15T13:07:54;24.10;1.00
47576;DHT22;33304;52.456;13.328;2022-07-15T13:10:21;23.60;1.00
47576;DHT22;33304;52.456;13.328;2022-07-15T13:12:49;23.30;1.00
47576;DHT22;33304;52.456;13.328;2022-07-15T13:15:16;22.40;1.00
47576;DHT22;33304;52.456;13.328;2022-07-15T13:17:45;21.90;1.00
47576;DHT22;33304;52.456;13.328;2022-07-15T13:20:12;21.90;1.00
47576;DHT22;33304;52.456;13.328;2022-07-15T13:22:39;22.00;1.00
47576;DHT22;33304;52.456;13.328;2022-07-15T13:25:07;22.00;1.00
47576;DHT22;33304;52.456;13.328;2022-07-15T13:27:35;21.40;1.00
47576;DHT22;33304;52.456;13.328;2022-07-15T13:30:03;21.40;1.00
47576;DHT22;33304;52.456;13.328;2022-07-15T13:32:31;21.60;1.00
47576;DHT22;33304;52.456;13.328;2022-07-15T13:34:59;21.40;1.10
47576;DHT22;33304;52.456;13.328;2022-07-15T13:37:26;21.30;1.00
47576;DHT22;33304;52.456;13.328;2022-07-15T13:39:54;21.30;1.00
47576;DHT22;33304;52.456;13.328;2022-07-15T13:42:21;21.60;1.00
47576;DHT22;33304;52.456;13.328;2022-07-15T13:44:50;22.00;1.00
47576;DHT22;33304;52.456;13.328;2022-07-15T13:47:17;23.00;1.00
47576;DHT22;33304;52.456;13.328;2022-07-15T13:49:44;23.70;1.00
47576;DHT22;33304;52.456;13.328;2022-07-15T13:52:31;24.10;1.00
47576;DHT22;33304;52.456;13.328;2022-07-15T13:54:58;24.20;1.00
47576;DHT22;33304;52.456;13.328;2022-07-15T13:57:25;24.20;1.00
47576;DHT22;33304;52.456;13.328;2022-07-15T13:59:52;25.10;1.00
47576;DHT22;33304;52.456;13.328;2022-07-15T14:02:19;25.40;1.00
47576;DHT22;33304;52.456;13.328;2022-07-15T14:04:47;25.20;1.00
47576;DHT22;33304;52.456;13.328;2022-07-15T14:07:14;25.10;1.00
47576;DHT22;33304;52.456;13.328;2022-07-15T14:09:43;25.50;1.00
47576;DHT22;33304;52.456;13.328;2022-07-15T14:12:10;23.90;1.00
47576;DHT22;33304;52.456;13.328;2022-07-15T14:14:38;23.10;1.00
47576;DHT22;33304;52.456;13.328;2022-07-15T14:17:05;22.80;1.00
47576;DHT22;33304;52.456;13.328;2022-07-15T14:19:32;22.50;1.00
47576;DHT22;33304;52.456;13.328;2022-07-15T14:21:59;21.90;1.00
47576;DHT22;33304;52.456;13.328;2022-07-15T14:24:26;22.20;1.00
47576;DHT22;33304;52.456;13.328;2022-07-15T14:26:55;23.40;1.00
47576;DHT22;33304;52.456;13.328;2022-07-15T14:29:23;23.90;1.00
47576;DHT22;33304;52.456;13.328;2022-07-15T14:31:51;23.80;1.00
47576;DHT22;33304;52.456;13.328;2022-07-15T14:34:19;23.30;1.00
47576;DHT22;33304;52.456;13.328;2022-07-15T14:36:46;22.90;1.00
47576;DHT22;33304;52.456;13.328;2022-07-15T14:39:13;22.60;1.00
47576;DHT22;33304;52.456;13.328;2022-07-15T14:41:40;22.00;1.00
47576;DHT22;33304;52.456;13.328;2022-07-15T14:44:08;22.40;1.00
47576;DHT22;33304;52.456;13.328;2022-07-15T14:46:36;22.90;1.00
47576;DHT22;33304;52.456;13.328;2022-07-15T14:49:03;22.60;1.00
47576;DHT22;33304;52.456;13.328;2022-07-15T14:51:30;22.90;1.00
47576;DHT22;33304;52.456;13.328;2022-07-15T14:53:57;23.70;1.00
47576;DHT22;33304;52.456;13.328;2022-07-15T14:56:24;24.50;1.00
47576;DHT22;33304;52.456;13.328;2022-07-15T14:58:52;24.40;1.00
47576;DHT22;33304;52.456;13.328;2022-07-15T15:01:20;23.70;1.00
47576;DHT22;33304;52.456;13.328;2022-07-15T15:03:47;23.40;1.00
47576;DHT22;33304;52.456;13.328;2022-07-15T15:06:15;23.50;1.00
47576;DHT22;33304;52.456;13.328;2022-07-15T15:08:42;23.50;1.00
47576;DHT22;33304;52.456;13.328;2022-07-15T15:11:09;23.50;1.00
47576;DHT22;33304;52.456;13.328;2022-07-15T15:13:36;23.40;1.00
47576;DHT22;33304;52.456;13.328;2022-07-15T15:16:04;23.00;1.00
47576;DHT22;33304;52.456;13.328;2022-07-15T15:18:32;22.70;1.00
47576;DHT22;33304;52.456;13.328;2022-07-15T15:20:59;22.50;1.00
47576;DHT22;33304;52.456;13.328;2022-07-15T15:23:26;22.40;1.00
47576;DHT22;33304;52.456;13.328;2022-07-15T15:25:54;22.40;1.00
47576;DHT22;33304;52.456;13.328;2022-07-15T15:28:38;22.60;1.00
47576;DHT22;33304;52.456;13.328;2022-07-15T15:31:06;22.70;1.00
47576;DHT22;33304;52.456;13.328;2022-07-15T15:33:34;22.30;1.00
47576;DHT22;33304;52.456;13.328;2022-07-15T15:36:01;22.10;1.00
47576;DHT22;33304;52.456;13.328;2022-07-15T15:38:29;21.90;1.00
47576;DHT22;33304;52.456;13.328;2022-07-15T15:40:56;21.90;1.00
47576;DHT22;33304;52.456;13.328;2022-07-15T15:43:24;22.50;1.00
47576;DHT22;33304;52.456;13.328;2022-07-15T15:45:51;23.90;1.00
47576;DHT22;33304;52.456;13.328;2022-07-15T15:48:18;24.90;1.00
47576;DHT22;33304;52.456;13.328;2022-07-15T15:50:47;24.90;1.00
47576;DHT22;33304;52.456;13.328;2022-07-15T15:53:14;25.30;1.00
47576;DHT22;33304;52.456;13.328;2022-07-15T15:55:41;25.40;1.00
47576;DHT22;33304;52.456;13.328;2022-07-15T15:58:08;25.40;1.00
47576;DHT22;33304;52.456;13.328;2022-07-15T16:00:35;24.90;1.00
47576;DHT22;33304;52.456;13.328;2022-07-15T16:03:03;24.80;1.00
47576;DHT22;33304;52.456;13.328;2022-07-15T16:05:30;24.20;1.00
47576;DHT22;33304;52.456;13.328;2022-07-15T16:07:59;23.80;1.00
47576;DHT22;33304;52.456;13.328;2022-07-15T16:10:26;23.40;1.00
47576;DHT22;33304;52.456;13.328;2022-07-15T16:12:53;22.60;1.00
47576;DHT22;33304;52.456;13.328;2022-07-15T16:15:20;22.40;1.00
47576;DHT22;33304;52.456;13.328;2022-07-15T16:17:47;22.70;1.00
47576;DHT22;33304;52.456;13.328;2022-07-15T16:20:14;23.10;1.00
47576;DHT22;33304;52.456;13.328;2022-07-15T16:22:42;22.80;1.00
47576;DHT22;33304;52.456;13.328;2022-07-15T16:25:26;22.20;1.00
47576;DHT22;33304;52.456;13.328;2022-07-15T16:27:54;21.90;1.00
47576;DHT22;33304;52.456;13.328;2022-07-15T16:30:22;21.70;1.00
47576;DHT22;33304;52.456;13.328;2022-07-15T16:32:50;21.70;1.00
47576;DHT22;33304;52.456;13.328;2022-07-15T16:35:18;21.50;1.00
47576;DHT22;33304;52.456;13.328;2022-07-15T16:37:46;22.10;1.00
47576;DHT22;33304;52.456;13.328;2022-07-15T16:40:13;22.70;1.00
47576;DHT22;33304;52.456;13.328;2022-07-15T16:42:42;23.10;1.00
47576;DHT22;33304;52.456;13.328;2022-07-15T16:45:10;23.00;1.00
47576;DHT22;33304;52.456;13.328;2022-07-15T16:47:37;22.70;1.00
47576;DHT22;33304;52.456;13.328;2022-07-15T16:50:08;22.50;1.00
47576;DHT22;33304;52.456;13.328;2022-07-15T16:52:35;22.30;1.00
47576;DHT22;33304;52.456;13.328;2022-07-15T16:55:03;21.90;1.00
47576;DHT22;33304;52.456;13.328;2022-07-15T16:57:31;21.90;1.00
47576;DHT22;33304;52.456;13.328;2022-07-15T16:59:59;21.60;1.00
47576;DHT22;33304;52.456;13.328;2022-07-15T17:02:26;21.60;1.00
47576;DHT22;33304;52.456;13.328;2022-07-15T17:04:54;21.70;1.00
47576;DHT22;33304;52.456;13.328;2022-07-15T17:07:21;21.90;1.00
47576;DHT22;33304;52.456;13.328;2022-07-15T17:09:48;21.80;1.00
47576;DHT22;33304;52.456;13.328;2022-07-15T17:12:15;21.80;1.00
47576;DHT22;33304;52.456;13.328;2022-07-15T17:14:42;21.60;1.00
47576;DHT22;33304;52.456;13.328;2022-07-15T17:17:11;21.60;1.00
47576;DHT22;33304;52.456;13.328;2022-07-15T17:19:38;21.40;1.00
47576;DHT22;33304;52.456;13.328;2022-07-15T17:22:05;21.10;1.00
47576;DHT22;33304;52.456;13.328;2022-07-15T17:24:32;20.90;1.00
47576;DHT22;33304;52.456;13.328;2022-07-15T17:26:59;20.70;1.00
47576;DHT22;33304;52.456;13.328;2022-07-15T17:29:27;20.60;1.00
47576;DHT22;33304;52.456;13.328;2022-07-15T17:31:54;20.60;1.00
47576;DHT22;33304;52.456;13.328;2022-07-15T17:34:22;20.80;1.10
47576;DHT22;33304;52.456;13.328;2022-07-15T17:36:49;20.70;1.00
47576;DHT22;33304;52.456;13.328;2022-07-15T17:39:17;20.60;1.00
47576;DHT22;33304;52.456;13.328;2022-07-15T17:41:44;20.50;1.00
47576;DHT22;33304;52.456;13.328;2022-07-15T17:44:11;20.50;1.00
47576;DHT22;33304;52.456;13.328;2022-07-15T17:46:38;20.40;1.40
47576;DHT22;33304;52.456;13.328;2022-07-15T17:49:06;20.40;1.80
47576;DHT22;33304;52.456;13.328;2022-07-15T17:51:34;20.40;2.40
47576;DHT22;33304;52.456;13.328;2022-07-15T17:54:01;20.60;2.00
47576;DHT22;33304;52.456;13.328;2022-07-15T17:56:28;20.50;2.40
47576;DHT22;33304;52.456;13.328;2022-07-15T17:58:56;20.40;2.40
47576;DHT22;33304;52.456;13.328;2022-07-15T18:01:23;20.40;2.90
47576;DHT22;33304;52.456;13.328;2022-07-15T18:03:51;20.40;3.30
47576;DHT22;33304;52.456;13.328;2022-07-15T18:06:18;20.40;3.00
47576;DHT22;33304;52.456;13.328;2022-07-15T18:08:47;20.40;3.20
47576;DHT22;33304;52.456;13.328;2022-07-15T18:11:15;20.40;3.10
47576;DHT22;33304;52.456;13.328;2022-07-15T18:13:42;20.20;2.70
47576;DHT22;33304;52.456;13.328;2022-07-15T18:16:10;20.20;3.60
47576;DHT22;33304;52.456;13.328;2022-07-15T18:18:37;20.10;3.40
47576;DHT22;33304;52.456;13.328;2022-07-15T18:21:04;20.20;3.40
47576;DHT22;33304;52.456;13.328;2022-07-15T18:23:32;20.30;3.80
47576;DHT22;33304;52.456;13.328;2022-07-15T18:26:01;20.10;3.50
47576;DHT22;33304;52.456;13.328;2022-07-15T18:28:29;20.00;3.20
47576;DHT22;33304;52.456;13.328;2022-07-15T18:30:56;20.00;3.50
47576;DHT22;33304;52.456;13.328;2022-07-15T18:33:23;20.00;3.80
47576;DHT22;33304;52.456;13.328;2022-07-15T18:35:51;20.00;4.20
47576;DHT22;33304;52.456;13.328;2022-07-15T18:38:18;19.90;3.90
47576;DHT22;33304;52.456;13.328;2022-07-15T18:40:59;19.80;4.30
47576;DHT22;33304;52.456;13.328;2022-07-15T18:43:29;19.70;4.20
47576;DHT22;33304;52.456;13.328;2022-07-15T18:45:56;19.80;5.00
47576;DHT22;33304;52.456;13.328;2022-07-15T18:48:23;19.60;4.50
47576;DHT22;33304;52.456;13.328;2022-07-15T18:50:51;19.50;4.50
47576;DHT22;33304;52.456;13.328;2022-07-15T18:53:19;19.50;4.70
47576;DHT22;33304;52.456;13.328;2022-07-15T18:55:47;19.50;5.20
47576;DHT22;33304;52.456;13.328;2022-07-15T18:58:15;19.50;5.80
47576;DHT22;33304;52.456;13.328;2022-07-15T19:00:43;19.50;5.40
47576;DHT22;33304;52.456;13.328;2022-07-15T19:03:10;19.20;5.90
47576;DHT22;33304;52.456;13.328;2022-07-15T19:05:38;19.20;6.00
47576;DHT22;33304;52.456;13.328;2022-07-15T19:08:05;19.20;6.10
47576;DHT22;33304;52.456;13.328;2022-07-15T19:10:32;19.20;6.30
47576;DHT22;33304;52.456;13.328;2022-07-15T19:13:00;19.10;6.60
47576;DHT22;33304;52.456;13.328;2022-07-15T19:15:27;19.20;6.70
47576;DHT22;33304;52.456;13.328;2022-07-15T19:17:56;19.00;6.80
47576;DHT22;33304;52.456;13.328;2022-07-15T19:20:23;18.90;7.30